Chicago, Illinois
Current Conditions -  °F | °C
As of 10:53 AM on Thursday 27 Nov 2014 (Local Time) from KMDW Reporting Station
Broken Clouds Broken Clouds  
Wind Chill: 18°   Ceiling: 2300
Heat Index: 29°   Visibility: 10mi
Dew Point: 18°   Wind: 14mph
Humidity: 64%   Direction: 310°NW
Pressure: 30.33"   Gusts: NA
Location:  41.88°N, 87.63°W
Report Text: KMDW 271653Z 31012KT 10SM BKN023 M02/M08 A3033 RMK AO2 SLP284 T10171078
Loading
Personal Weather Stations






























Interactive Weather Map New forecast layout! Learn more

10-Day Weather Forecast

Advertisements
Track Severe Weather on mobile